createdAt,value
2017-10-13T00:00:34.492Z,1014.89
2017-10-13T00:01:14.852Z,1014.92
2017-10-13T00:01:55.277Z,1014.88
2017-10-13T00:02:35.703Z,1014.95
2017-10-13T00:03:16.309Z,1014.95
2017-10-13T00:03:56.744Z,1014.91
2017-10-13T00:04:37.083Z,1014.93
2017-10-13T00:05:17.457Z,1014.9
2017-10-13T00:05:57.894Z,1014.89
2017-10-13T00:06:38.296Z,1014.87
2017-10-13T00:07:18.729Z,1014.91
2017-10-13T00:07:59.119Z,1014.9
2017-10-13T00:08:39.589Z,1014.91
2017-10-13T00:09:19.976Z,1014.93
2017-10-13T00:10:00.401Z,1014.89
2017-10-13T00:10:40.788Z,1014.93
2017-10-13T00:11:21.424Z,1014.94
2017-10-13T00:12:01.837Z,1014.97
2017-10-13T00:12:42.259Z,1014.93
2017-10-13T00:13:22.712Z,1014.94
2017-10-13T00:14:03.211Z,1014.95
2017-10-13T00:14:43.587Z,1014.93
2017-10-13T00:15:23.975Z,1014.93
2017-10-13T00:16:04.429Z,1014.95
2017-10-13T00:16:45.034Z,1014.94
2017-10-13T00:17:25.475Z,1014.96
2017-10-13T00:18:05.843Z,1014.98
2017-10-13T00:18:46.280Z,1014.98
2017-10-13T00:19:26.801Z,1014.98
2017-10-13T00:20:07.233Z,1015.02
2017-10-13T00:20:47.734Z,1014.99
2017-10-13T00:21:28.119Z,1015.04
2017-10-13T00:22:08.597Z,1015.02
2017-10-13T00:22:49.051Z,1015.04
2017-10-13T00:23:29.433Z,1015.01
2017-10-13T00:24:09.805Z,1015.03
2017-10-13T00:24:50.251Z,1015
2017-10-13T00:25:30.603Z,1015.02
2017-10-13T00:26:11.016Z,1014.98
2017-10-13T00:26:51.538Z,1015.03
2017-10-13T00:27:32.023Z,1014.99
2017-10-13T00:28:12.432Z,1014.99
2017-10-13T00:28:52.790Z,1014.98
2017-10-13T00:29:33.277Z,1014.96
2017-10-13T00:30:13.607Z,1014.97
2017-10-13T00:30:53.989Z,1014.96
2017-10-13T00:31:34.421Z,1014.96
2017-10-13T00:32:14.832Z,1015
2017-10-13T00:32:55.355Z,1014.96
2017-10-13T00:33:35.869Z,1014.97
2017-10-13T00:34:16.363Z,1014.96
2017-10-13T00:34:56.874Z,1014.99
2017-10-13T00:35:37.431Z,1014.96
2017-10-13T00:36:17.843Z,1014.99
2017-10-13T00:36:58.277Z,1014.97
2017-10-13T00:37:38.662Z,1014.96
2017-10-13T00:38:19.016Z,1015
2017-10-13T00:38:59.514Z,1014.98
2017-10-13T00:39:39.942Z,1015
2017-10-13T00:40:20.360Z,1014.96
2017-10-13T00:41:00.798Z,1015
2017-10-13T00:41:41.217Z,1015.03
2017-10-13T00:42:21.655Z,1015.03
2017-10-13T00:43:02.139Z,1015.02
2017-10-13T00:43:42.501Z,1014.98
2017-10-13T00:44:22.988Z,1014.99
2017-10-13T00:45:03.350Z,1014.98
2017-10-13T00:45:43.747Z,1014.97
2017-10-13T00:46:24.290Z,1014.96
2017-10-13T00:47:04.726Z,1014.96
2017-10-13T00:47:45.139Z,1014.94
2017-10-13T00:48:25.595Z,1014.93
2017-10-13T00:49:05.987Z,1014.97
2017-10-13T00:49:46.487Z,1014.97
2017-10-13T00:50:26.959Z,1014.95
2017-10-13T00:51:07.294Z,1014.96
2017-10-13T00:51:47.803Z,1014.96
2017-10-13T00:52:28.124Z,1014.93
2017-10-13T00:53:08.550Z,1014.92
2017-10-13T00:53:48.929Z,1014.94
2017-10-13T00:54:29.355Z,1014.91
2017-10-13T00:55:09.769Z,1014.94
2017-10-13T00:55:50.300Z,1014.99
2017-10-13T00:56:30.710Z,1014.95
2017-10-13T00:57:11.106Z,1014.95
2017-10-13T00:57:51.443Z,1014.96
2017-10-13T00:58:31.943Z,1014.99
2017-10-13T00:59:12.353Z,1015.01
2017-10-13T00:59:52.840Z,1015.02
2017-10-13T01:00:33.272Z,1015.03
2017-10-13T01:01:13.617Z,1015.04
2017-10-13T01:01:54.150Z,1015.06
2017-10-13T01:02:34.736Z,1015.09
2017-10-13T01:03:15.160Z,1015.06
2017-10-13T01:03:55.545Z,1015.07
2017-10-13T01:04:36.037Z,1015.1
2017-10-13T01:05:16.405Z,1015.07
2017-10-13T01:05:56.821Z,1015.08
2017-10-13T01:06:37.199Z,1015.09
2017-10-13T01:07:17.666Z,1015.08
2017-10-13T01:07:58.184Z,1015.07
2017-10-13T01:08:38.688Z,1015.12
2017-10-13T01:09:19.081Z,1015.1
2017-10-13T01:09:59.481Z,1015.09
2017-10-13T01:10:39.895Z,1015.1
2017-10-13T01:11:20.372Z,1015.12
2017-10-13T01:12:00.773Z,1015.12
2017-10-13T01:12:41.128Z,1015.11
2017-10-13T01:13:21.655Z,1015.08
2017-10-13T01:14:02.046Z,1015.09
2017-10-13T01:14:42.473Z,1015.06
2017-10-13T01:15:22.900Z,1015.07
2017-10-13T01:16:03.229Z,1015.06
2017-10-13T01:16:43.698Z,1015.09
2017-10-13T01:17:23.995Z,1015.05
2017-10-13T01:18:04.484Z,1015.06
2017-10-13T01:18:44.879Z,1015.08
2017-10-13T01:19:25.401Z,1015.04
2017-10-13T01:20:05.777Z,1015.06
2017-10-13T01:20:46.285Z,1015.07
2017-10-13T01:21:26.732Z,1015.08
2017-10-13T01:22:07.108Z,1015.09
2017-10-13T01:22:47.518Z,1015.09
2017-10-13T01:23:27.927Z,1015.08
2017-10-13T01:24:08.541Z,1015.13
2017-10-13T01:24:49.076Z,1015.11
2017-10-13T01:25:29.530Z,1015.13
2017-10-13T01:26:09.941Z,1015.11
2017-10-13T01:26:50.325Z,1015.12
2017-10-13T01:27:30.661Z,1015.13
2017-10-13T01:28:11.106Z,1015.1
2017-10-13T01:28:51.535Z,1015.11
2017-10-13T01:29:31.913Z,1015.1
2017-10-13T01:30:12.353Z,1015.15
2017-10-13T01:30:52.792Z,1015.09
2017-10-13T01:31:33.238Z,1015.08
2017-10-13T01:32:13.654Z,1015.1
2017-10-13T01:32:54.054Z,1015.05
2017-10-13T01:33:34.582Z,1015.08
2017-10-13T01:34:14.972Z,1015.08
2017-10-13T01:34:55.345Z,1015.04
2017-10-13T01:35:35.696Z,1015.04
2017-10-13T01:36:16.237Z,1015.06
2017-10-13T01:36:56.740Z,1015.03
2017-10-13T01:37:37.125Z,1015.1
2017-10-13T01:38:17.648Z,1015.04
2017-10-13T01:38:58.096Z,1015.09
2017-10-13T01:39:38.552Z,1015.06
2017-10-13T01:40:19.002Z,1015.06
2017-10-13T01:40:59.460Z,1015.04
2017-10-13T01:41:39.870Z,1014.99
2017-10-13T01:42:20.333Z,1014.99
2017-10-13T01:43:00.725Z,1015.01
2017-10-13T01:43:41.175Z,1015.04
2017-10-13T01:44:21.500Z,1015.03
2017-10-13T01:45:01.972Z,1015.09
2017-10-13T01:45:42.510Z,1015.06
2017-10-13T01:46:22.951Z,1015.02
2017-10-13T01:47:03.349Z,1015.01
2017-10-13T01:47:43.756Z,1015.02
2017-10-13T01:48:24.190Z,1015.01
2017-10-13T01:49:04.636Z,1015.04
2017-10-13T01:49:44.962Z,1014.99
2017-10-13T01:50:25.439Z,1014.94
2017-10-13T01:51:05.944Z,1014.94
2017-10-13T01:51:46.385Z,1014.95
2017-10-13T01:52:26.741Z,1014.97
2017-10-13T01:53:07.265Z,1014.95
2017-10-13T01:53:47.634Z,1014.97
2017-10-13T01:54:28.069Z,1014.95
2017-10-13T01:55:08.521Z,1015
2017-10-13T01:55:48.915Z,1014.93
2017-10-13T01:56:29.318Z,1014.93
2017-10-13T01:57:09.694Z,1014.93
2017-10-13T01:57:50.063Z,1014.94
2017-10-13T01:58:30.560Z,1014.93
2017-10-13T01:59:10.957Z,1014.94
2017-10-13T01:59:51.385Z,1014.93
2017-10-13T02:00:31.827Z,1014.91
2017-10-13T02:01:12.279Z,1014.92
2017-10-13T02:01:52.695Z,1014.95
2017-10-13T02:02:33.134Z,1014.88
2017-10-13T02:03:13.591Z,1014.9
2017-10-13T02:03:53.957Z,1014.87
2017-10-13T02:04:34.396Z,1014.87
2017-10-13T02:05:14.838Z,1014.88
2017-10-13T02:05:55.227Z,1014.85
2017-10-13T02:06:35.590Z,1014.86
2017-10-13T02:07:16.027Z,1014.86
2017-10-13T02:07:56.393Z,1014.87
2017-10-13T02:08:36.788Z,1014.85
2017-10-13T02:09:17.138Z,1014.86
2017-10-13T02:09:57.676Z,1014.82
2017-10-13T02:10:38.021Z,1014.84
2017-10-13T02:11:18.449Z,1014.81
2017-10-13T02:11:58.844Z,1014.85
2017-10-13T02:12:39.286Z,1014.86
2017-10-13T02:13:19.599Z,1014.84
2017-10-13T02:14:00.157Z,1014.85
2017-10-13T02:14:40.565Z,1014.81
2017-10-13T02:15:20.961Z,1014.83
2017-10-13T02:16:01.431Z,1014.84
2017-10-13T02:16:41.897Z,1014.86
2017-10-13T02:17:22.291Z,1014.86
2017-10-13T02:18:02.642Z,1014.88
2017-10-13T02:18:43.095Z,1014.87
2017-10-13T02:19:23.529Z,1014.87
2017-10-13T02:20:03.866Z,1014.86
2017-10-13T02:20:44.286Z,1014.84
2017-10-13T02:21:24.760Z,1014.85
2017-10-13T02:22:05.313Z,1014.8
2017-10-13T02:22:46.089Z,1014.75
2017-10-13T02:23:26.508Z,1014.75
2017-10-13T02:24:06.985Z,1014.74
2017-10-13T02:24:47.392Z,1014.74
2017-10-13T02:25:27.784Z,1014.71
2017-10-13T02:26:08.163Z,1014.7
2017-10-13T02:26:48.567Z,1014.71
2017-10-13T02:27:28.932Z,1014.71
2017-10-13T02:28:09.352Z,1014.73
2017-10-13T02:28:49.751Z,1014.71
2017-10-13T02:29:30.159Z,1014.72
2017-10-13T02:30:10.512Z,1014.72
2017-10-13T02:30:51.085Z,1014.73
2017-10-13T02:31:31.429Z,1014.72
2017-10-13T02:32:11.888Z,1014.73
2017-10-13T02:32:52.288Z,1014.74
2017-10-13T02:33:32.729Z,1014.67
2017-10-13T02:34:13.134Z,1014.73
2017-10-13T02:34:54.340Z,1014.71
2017-10-13T02:35:34.018Z,1014.71
2017-10-13T02:36:14.568Z,1014.72
2017-10-13T02:36:55.094Z,1014.71
2017-10-13T02:37:35.464Z,1014.73
2017-10-13T02:38:15.998Z,1014.7
2017-10-13T02:38:56.456Z,1014.73
2017-10-13T02:39:36.906Z,1014.7
2017-10-13T02:40:17.291Z,1014.75
2017-10-13T02:40:57.800Z,1014.8
2017-10-13T02:41:38.223Z,1014.78
2017-10-13T02:42:18.801Z,1014.78
2017-10-13T02:42:59.208Z,1014.8
2017-10-13T02:43:39.680Z,1014.8
2017-10-13T02:44:20.221Z,1014.82
2017-10-13T02:45:00.710Z,1014.8
2017-10-13T02:45:41.075Z,1014.78
2017-10-13T02:46:21.519Z,1014.78
2017-10-13T02:47:01.945Z,1014.81
2017-10-13T02:47:42.274Z,1014.8
2017-10-13T02:48:22.808Z,1014.78
2017-10-13T02:49:03.348Z,1014.82
2017-10-13T02:49:43.663Z,1014.77
2017-10-13T02:50:24.105Z,1014.78
2017-10-13T02:51:04.477Z,1014.76
2017-10-13T02:51:44.918Z,1014.82
2017-10-13T02:52:25.322Z,1014.85
2017-10-13T02:53:05.768Z,1014.89
2017-10-13T02:53:46.020Z,1014.9
2017-10-13T02:54:26.474Z,1014.9
2017-10-13T02:55:06.907Z,1014.88
2017-10-13T02:55:47.260Z,1014.93
2017-10-13T02:56:27.701Z,1014.93
2017-10-13T02:57:08.122Z,1014.9
2017-10-13T02:57:48.519Z,1014.93
2017-10-13T02:58:28.948Z,1014.93
2017-10-13T02:59:09.343Z,1014.88
2017-10-13T02:59:49.871Z,1014.89
2017-10-13T03:00:30.288Z,1014.86
2017-10-13T03:01:10.669Z,1014.84
2017-10-13T03:01:51.275Z,1014.82
2017-10-13T03:02:31.738Z,1014.82
2017-10-13T03:03:12.096Z,1014.86
2017-10-13T03:03:52.532Z,1014.8
2017-10-13T03:04:32.963Z,1014.81
2017-10-13T03:05:13.345Z,1014.84
2017-10-13T03:05:53.759Z,1014.79
2017-10-13T03:06:34.214Z,1014.79
2017-10-13T03:07:14.563Z,1014.75
2017-10-13T03:07:55.092Z,1014.77
2017-10-13T03:08:35.539Z,1014.7
2017-10-13T03:09:16.055Z,1014.73
2017-10-13T03:09:56.330Z,1014.73
2017-10-13T03:10:36.860Z,1014.7
2017-10-13T03:11:17.225Z,1014.71
2017-10-13T03:11:57.703Z,1014.74
2017-10-13T03:12:38.123Z,1014.74
2017-10-13T03:13:18.601Z,1014.77
2017-10-13T03:13:58.976Z,1014.83
2017-10-13T03:14:39.416Z,1014.86
2017-10-13T03:15:19.812Z,1014.88
2017-10-13T03:16:00.200Z,1014.9
2017-10-13T03:16:40.736Z,1014.92
2017-10-13T03:17:21.202Z,1014.9
2017-10-13T03:18:01.662Z,1014.88
2017-10-13T03:18:42.101Z,1014.93
2017-10-13T03:19:22.560Z,1014.94
2017-10-13T03:20:02.971Z,1014.96
2017-10-13T03:20:43.407Z,1014.92
2017-10-13T03:21:23.881Z,1014.92
2017-10-13T03:22:04.231Z,1014.88
2017-10-13T03:22:44.880Z,1014.87
2017-10-13T03:23:25.481Z,1014.86
2017-10-13T03:24:05.780Z,1014.85
2017-10-13T03:24:46.123Z,1014.86
2017-10-13T03:25:26.582Z,1014.9
2017-10-13T03:26:07.042Z,1014.88
2017-10-13T03:26:47.496Z,1014.86
2017-10-13T03:27:27.797Z,1014.89
2017-10-13T03:28:08.294Z,1014.89
2017-10-13T03:28:48.730Z,1014.91
2017-10-13T03:29:29.192Z,1014.93
2017-10-13T03:30:09.619Z,1014.95
2017-10-13T03:30:50.016Z,1014.94
2017-10-13T03:31:30.475Z,1014.92
2017-10-13T03:32:10.863Z,1014.93
2017-10-13T03:32:51.252Z,1014.95
2017-10-13T03:33:31.641Z,1014.94
2017-10-13T03:34:12.171Z,1014.92
2017-10-13T03:34:52.605Z,1014.91
2017-10-13T03:35:32.999Z,1014.93
2017-10-13T03:36:13.336Z,1014.96
2017-10-13T03:36:53.797Z,1015
2017-10-13T03:37:34.147Z,1014.95
2017-10-13T03:38:14.622Z,1014.93
2017-10-13T03:38:55.023Z,1014.92
2017-10-13T03:39:35.407Z,1014.91
2017-10-13T03:40:15.784Z,1014.9
2017-10-13T03:40:56.378Z,1014.89
2017-10-13T03:41:36.736Z,1014.9
2017-10-13T03:42:17.148Z,1014.9
2017-10-13T03:42:57.585Z,1014.91
2017-10-13T03:43:37.909Z,1014.91
2017-10-13T03:44:18.377Z,1014.92
2017-10-13T03:44:58.808Z,1014.91
2017-10-13T03:45:39.279Z,1014.87
2017-10-13T03:46:19.748Z,1014.88
2017-10-13T03:47:00.202Z,1014.88
2017-10-13T03:47:40.533Z,1014.86
2017-10-13T03:48:21.041Z,1014.88
2017-10-13T03:49:01.472Z,1014.83
2017-10-13T03:49:41.786Z,1014.86
2017-10-13T03:50:22.203Z,1014.87
2017-10-13T03:51:02.554Z,1014.87
2017-10-13T03:51:43.024Z,1014.86
2017-10-13T03:52:23.464Z,1014.83
2017-10-13T03:53:03.846Z,1014.86
2017-10-13T03:53:44.351Z,1014.86
2017-10-13T03:54:25.022Z,1014.88
2017-10-13T03:55:05.635Z,1014.89
2017-10-13T03:55:46.108Z,1014.89
2017-10-13T03:56:26.488Z,1014.89
2017-10-13T03:57:06.885Z,1014.9
2017-10-13T03:57:47.291Z,1014.89
2017-10-13T03:58:27.683Z,1014.91
2017-10-13T03:59:08.148Z,1014.88
2017-10-13T03:59:48.529Z,1014.91
2017-10-13T04:00:28.980Z,1014.92
2017-10-13T04:01:09.450Z,1014.92
2017-10-13T04:01:49.889Z,1014.89
2017-10-13T04:02:30.320Z,1014.91
2017-10-13T04:03:10.737Z,1014.89
2017-10-13T04:03:51.232Z,1014.88
2017-10-13T04:04:31.580Z,1014.9
2017-10-13T04:05:12.070Z,1014.93
2017-10-13T04:05:52.506Z,1014.94
2017-10-13T04:06:33.002Z,1014.92
2017-10-13T04:07:13.352Z,1014.93
2017-10-13T04:07:53.999Z,1014.91
2017-10-13T04:08:34.359Z,1014.92
2017-10-13T04:09:14.798Z,1014.94
2017-10-13T04:09:55.203Z,1014.94
2017-10-13T04:10:36.071Z,1014.9
2017-10-13T04:11:16.621Z,1014.9
2017-10-13T04:11:57.008Z,1014.9
2017-10-13T04:12:37.407Z,1014.9
2017-10-13T04:13:17.806Z,1014.91
2017-10-13T04:13:58.236Z,1014.9
2017-10-13T04:14:38.756Z,1014.89
2017-10-13T04:15:19.290Z,1014.91
2017-10-13T04:15:59.706Z,1014.93
2017-10-13T04:16:40.266Z,1014.91
2017-10-13T04:17:20.673Z,1014.94
2017-10-13T04:18:00.976Z,1014.92
2017-10-13T04:18:41.524Z,1014.91
2017-10-13T04:19:22.240Z,1014.91
2017-10-13T04:20:02.694Z,1014.91
2017-10-13T04:20:43.243Z,1014.88
2017-10-13T04:21:23.788Z,1014.91
2017-10-13T04:22:04.281Z,1014.87
2017-10-13T04:22:44.738Z,1014.93
2017-10-13T04:23:26.239Z,1014.92
2017-10-13T04:24:06.521Z,1014.92
2017-10-13T04:24:47.359Z,1014.93
2017-10-13T04:25:27.990Z,1014.91
2017-10-13T04:26:08.430Z,1014.96
2017-10-13T04:26:48.930Z,1014.92
2017-10-13T04:27:29.397Z,1014.92
2017-10-13T04:28:09.923Z,1014.88
2017-10-13T04:28:50.356Z,1014.91
2017-10-13T04:29:30.889Z,1014.87
2017-10-13T04:30:11.343Z,1014.88
2017-10-13T04:30:51.720Z,1014.88
2017-10-13T04:31:32.106Z,1014.88
2017-10-13T04:32:12.660Z,1014.85
2017-10-13T04:32:53.215Z,1014.88
2017-10-13T04:33:33.542Z,1014.9
2017-10-13T04:34:14.026Z,1014.88
2017-10-13T04:34:54.354Z,1014.85
2017-10-13T04:35:34.877Z,1014.89
2017-10-13T04:36:15.275Z,1014.88
2017-10-13T04:36:55.626Z,1014.9
2017-10-13T04:37:36.074Z,1014.9
2017-10-13T04:38:16.503Z,1014.92
2017-10-13T04:38:56.828Z,1014.87
2017-10-13T04:39:37.284Z,1014.86
2017-10-13T04:40:17.770Z,1014.88
2017-10-13T04:40:58.287Z,1014.87
2017-10-13T04:41:38.652Z,1014.87
2017-10-13T04:42:19.019Z,1014.88
2017-10-13T04:42:59.562Z,1014.88
2017-10-13T04:43:39.999Z,1014.88
2017-10-13T04:44:20.463Z,1014.9
2017-10-13T04:45:00.853Z,1014.9
2017-10-13T04:45:41.585Z,1014.93
2017-10-13T04:46:21.967Z,1014.91
2017-10-13T04:47:02.539Z,1014.92
2017-10-13T04:47:42.916Z,1014.89
2017-10-13T04:48:23.459Z,1014.89
2017-10-13T04:49:03.852Z,1014.91
2017-10-13T04:49:44.244Z,1014.94
2017-10-13T04:50:24.603Z,1014.96
2017-10-13T04:51:05.133Z,1014.97
2017-10-13T04:51:45.564Z,1014.97
2017-10-13T04:52:26.056Z,1014.94
2017-10-13T04:53:06.589Z,1014.96
2017-10-13T04:53:47.160Z,1014.96
2017-10-13T04:54:27.453Z,1014.95
2017-10-13T04:55:07.849Z,1014.93
2017-10-13T04:55:48.364Z,1014.97
2017-10-13T04:56:28.793Z,1014.94
2017-10-13T04:57:09.292Z,1014.95
2017-10-13T04:57:49.714Z,1014.93
2017-10-13T04:58:30.219Z,1014.97
2017-10-13T04:59:10.678Z,1014.96
2017-10-13T04:59:50.997Z,1014.99
2017-10-13T05:00:31.473Z,1014.97
2017-10-13T05:01:11.874Z,1015
2017-10-13T05:01:52.335Z,1014.98
2017-10-13T05:02:32.629Z,1014.96
2017-10-13T05:03:13.090Z,1014.96
2017-10-13T05:03:53.542Z,1015.01
2017-10-13T05:04:34.066Z,1015.01
2017-10-13T05:05:14.367Z,1014.99
2017-10-13T05:05:54.796Z,1015.02
2017-10-13T05:06:35.320Z,1015.07
2017-10-13T05:07:15.757Z,1015.03
2017-10-13T05:07:56.272Z,1015.05
2017-10-13T05:08:36.774Z,1015.06
2017-10-13T05:09:17.225Z,1015.02
2017-10-13T05:09:57.617Z,1015.05
2017-10-13T05:10:38.165Z,1015.05
2017-10-13T05:11:18.596Z,1015.03
2017-10-13T05:11:58.994Z,1015.06
2017-10-13T05:12:39.359Z,1015.06
2017-10-13T05:13:19.800Z,1015.07
2017-10-13T05:14:00.248Z,1015.08
2017-10-13T05:14:40.613Z,1015.04
2017-10-13T05:15:21.263Z,1015.06
2017-10-13T05:16:01.630Z,1015.05
2017-10-13T05:16:42.138Z,1015.04
2017-10-13T05:17:22.597Z,1015.04
2017-10-13T05:18:03.062Z,1015.08
2017-10-13T05:18:43.433Z,1015.09
2017-10-13T05:19:23.935Z,1015.1
2017-10-13T05:20:04.309Z,1015.07
2017-10-13T05:20:44.751Z,1015.1
2017-10-13T05:21:25.158Z,1015.11
2017-10-13T05:22:05.552Z,1015.14
2017-10-13T05:22:45.952Z,1015.16
2017-10-13T05:23:26.421Z,1015.14
2017-10-13T05:24:06.781Z,1015.14
2017-10-13T05:24:47.216Z,1015.11
2017-10-13T05:25:27.790Z,1015.16
2017-10-13T05:26:08.333Z,1015.1
2017-10-13T05:26:48.849Z,1015.11
2017-10-13T05:27:29.359Z,1015.09
2017-10-13T05:28:09.766Z,1015.11
2017-10-13T05:28:50.376Z,1015.11
2017-10-13T05:29:30.773Z,1015.07
2017-10-13T05:30:11.158Z,1015.07
2017-10-13T05:30:51.698Z,1015.05
2017-10-13T05:31:32.217Z,1015.07
2017-10-13T05:32:12.652Z,1015.07
2017-10-13T05:32:53.015Z,1015.09
2017-10-13T05:33:33.552Z,1015.07
2017-10-13T05:34:13.957Z,1015.09
2017-10-13T05:34:54.350Z,1015.1
2017-10-13T05:35:34.789Z,1015.09
2017-10-13T05:36:15.278Z,1015.09
2017-10-13T05:36:55.787Z,1015.1
2017-10-13T05:37:36.370Z,1015.11
2017-10-13T05:38:16.797Z,1015.11
2017-10-13T05:38:57.179Z,1015.1
2017-10-13T05:39:37.628Z,1015.13
2017-10-13T05:40:18.043Z,1015.09
2017-10-13T05:40:58.573Z,1015.13
2017-10-13T05:41:38.971Z,1015.11
2017-10-13T05:42:19.408Z,1015.1
2017-10-13T05:42:59.827Z,1015.1
2017-10-13T05:43:40.206Z,1015.13
2017-10-13T05:44:20.634Z,1015.14
2017-10-13T05:45:01.003Z,1015.16
2017-10-13T05:45:41.665Z,1015.16
2017-10-13T05:46:22.253Z,1015.12
2017-10-13T05:47:02.525Z,1015.11
2017-10-13T05:47:42.922Z,1015.08
2017-10-13T05:48:23.367Z,1015.13
2017-10-13T05:49:03.779Z,1015.15
2017-10-13T05:49:44.155Z,1015.13
2017-10-13T05:50:24.563Z,1015.12
2017-10-13T05:51:05.029Z,1015.12
2017-10-13T05:51:45.537Z,1015.09
2017-10-13T05:52:25.899Z,1015.12
2017-10-13T05:53:06.456Z,1015.11
2017-10-13T05:53:46.835Z,1015.11
2017-10-13T05:54:27.236Z,1015.13
2017-10-13T05:55:07.640Z,1015.14
2017-10-13T05:55:48.083Z,1015.16
2017-10-13T05:56:28.510Z,1015.13
2017-10-13T05:57:09.035Z,1015.14
2017-10-13T05:57:49.510Z,1015.16
2017-10-13T05:58:29.944Z,1015.11
2017-10-13T05:59:10.398Z,1015.14
2017-10-13T05:59:51.562Z,1015.11
2017-10-13T06:00:32.586Z,1015.1
2017-10-13T06:01:12.650Z,1015.09
2017-10-13T06:01:53.108Z,1015.12
2017-10-13T06:02:33.529Z,1015.1
2017-10-13T06:03:14.013Z,1015.08
2017-10-13T06:03:54.545Z,1015.12
2017-10-13T06:04:34.993Z,1015.12
2017-10-13T06:05:15.414Z,1015.08
2017-10-13T06:05:55.782Z,1015.12
2017-10-13T06:06:36.209Z,1015.15
2017-10-13T06:07:16.601Z,1015.17
2017-10-13T06:07:57.006Z,1015.17
2017-10-13T06:08:37.373Z,1015.17
2017-10-13T06:09:17.808Z,1015.2
2017-10-13T06:09:58.178Z,1015.19
2017-10-13T06:10:38.659Z,1015.21
2017-10-13T06:11:19.072Z,1015.2
2017-10-13T06:11:59.430Z,1015.25
2017-10-13T06:12:39.866Z,1015.24
2017-10-13T06:13:20.315Z,1015.25
2017-10-13T06:14:00.737Z,1015.25
2017-10-13T06:14:41.255Z,1015.24
2017-10-13T06:15:21.863Z,1015.24
2017-10-13T06:16:02.462Z,1015.23
2017-10-13T06:16:42.793Z,1015.18
2017-10-13T06:17:23.156Z,1015.2
2017-10-13T06:18:03.784Z,1015.21
2017-10-13T06:18:44.187Z,1015.2
2017-10-13T06:19:24.707Z,1015.23
2017-10-13T06:20:05.194Z,1015.24
2017-10-13T06:20:46.532Z,1015.27
2017-10-13T06:21:26.335Z,1015.25
2017-10-13T06:22:06.699Z,1015.28
2017-10-13T06:22:47.094Z,1015.28
2017-10-13T06:23:27.484Z,1015.29
2017-10-13T06:24:07.899Z,1015.27
2017-10-13T06:24:48.353Z,1015.29
2017-10-13T06:25:28.763Z,1015.28
2017-10-13T06:26:09.267Z,1015.31
2017-10-13T06:26:49.738Z,1015.25
2017-10-13T06:27:30.517Z,1015.31
2017-10-13T06:28:10.785Z,1015.28
2017-10-13T06:28:51.640Z,1015.27
2017-10-13T06:29:32.124Z,1015.27
2017-10-13T06:30:12.538Z,1015.27
2017-10-13T06:30:52.984Z,1015.31
2017-10-13T06:31:33.695Z,1015.3
2017-10-13T06:32:14.080Z,1015.32
2017-10-13T06:32:55.488Z,1015.31
2017-10-13T06:33:36.009Z,1015.33
2017-10-13T06:34:16.488Z,1015.34
2017-10-13T06:34:56.883Z,1015.35
2017-10-13T06:35:37.354Z,1015.36
2017-10-13T06:36:17.806Z,1015.38
2017-10-13T06:36:58.259Z,1015.36
2017-10-13T06:37:38.851Z,1015.4
2017-10-13T06:38:19.361Z,1015.37
2017-10-13T06:38:59.724Z,1015.4
2017-10-13T06:39:40.224Z,1015.42
2017-10-13T06:40:20.637Z,1015.42
2017-10-13T06:41:01.099Z,1015.45
2017-10-13T06:41:41.714Z,1015.42
2017-10-13T06:42:22.230Z,1015.44
2017-10-13T06:43:02.619Z,1015.48
2017-10-13T06:43:43.067Z,1015.47
2017-10-13T06:44:23.621Z,1015.45
2017-10-13T06:45:04.155Z,1015.47
2017-10-13T06:45:44.559Z,1015.48
2017-10-13T06:46:24.948Z,1015.47
2017-10-13T06:47:05.375Z,1015.47
2017-10-13T06:47:45.972Z,1015.47
2017-10-13T06:48:26.407Z,1015.47
2017-10-13T06:49:06.833Z,1015.49
2017-10-13T06:49:47.230Z,1015.5
2017-10-13T06:50:27.767Z,1015.47
2017-10-13T06:51:08.455Z,1015.47
2017-10-13T06:51:49.046Z,1015.49
2017-10-13T06:52:29.500Z,1015.49
2017-10-13T06:53:09.854Z,1015.48
2017-10-13T06:53:50.288Z,1015.46
2017-10-13T06:54:30.639Z,1015.47
2017-10-13T06:55:11.072Z,1015.47
2017-10-13T06:55:51.555Z,1015.47
2017-10-13T06:56:32.062Z,1015.44
2017-10-13T06:57:12.571Z,1015.45
2017-10-13T06:57:52.969Z,1015.47
2017-10-13T06:58:33.467Z,1015.45
2017-10-13T06:59:13.849Z,1015.4
2017-10-13T06:59:54.327Z,1015.38
2017-10-13T07:00:34.761Z,1015.39
2017-10-13T07:01:15.277Z,1015.41
2017-10-13T07:01:55.739Z,1015.48
2017-10-13T07:02:36.107Z,1015.5
2017-10-13T07:03:16.647Z,1015.5
2017-10-13T07:03:57.087Z,1015.51
2017-10-13T07:04:37.550Z,1015.51
2017-10-13T07:05:18.028Z,1015.47
2017-10-13T07:05:58.423Z,1015.49
2017-10-13T07:06:38.820Z,1015.5
2017-10-13T07:07:19.358Z,1015.51
2017-10-13T07:07:59.784Z,1015.51
2017-10-13T07:08:40.247Z,1015.55
2017-10-13T07:09:20.701Z,1015.56
2017-10-13T07:10:01.125Z,1015.54
2017-10-13T07:10:41.807Z,1015.56
2017-10-13T07:11:22.416Z,1015.52
2017-10-13T07:12:02.942Z,1015.55
2017-10-13T07:12:43.250Z,1015.56
2017-10-13T07:13:24.946Z,1015.57
2017-10-13T07:14:05.065Z,1015.55
2017-10-13T07:14:45.480Z,1015.55
2017-10-13T07:15:27.043Z,1015.57
2017-10-13T07:16:06.707Z,1015.54
2017-10-13T07:16:47.240Z,1015.54
2017-10-13T07:17:27.571Z,1015.58
2017-10-13T07:18:08.060Z,1015.51
2017-10-13T07:18:48.446Z,1015.54
2017-10-13T07:19:28.897Z,1015.53
2017-10-13T07:20:09.912Z,1015.55
2017-10-13T07:20:50.210Z,1015.55
2017-10-13T07:21:30.538Z,1015.58
2017-10-13T07:22:10.957Z,1015.58
2017-10-13T07:22:51.430Z,1015.58
2017-10-13T07:23:31.844Z,1015.61
2017-10-13T07:24:12.280Z,1015.59
2017-10-13T07:24:52.731Z,1015.57
2017-10-13T07:25:33.131Z,1015.62
2017-10-13T07:26:13.468Z,1015.62
2017-10-13T07:26:53.918Z,1015.65
2017-10-13T07:27:34.364Z,1015.64
2017-10-13T07:28:14.919Z,1015.62
2017-10-13T07:28:55.306Z,1015.68
2017-10-13T07:29:35.696Z,1015.67
2017-10-13T07:30:16.154Z,1015.68
2017-10-13T07:30:56.662Z,1015.73
2017-10-13T07:31:37.056Z,1015.73
2017-10-13T07:32:17.486Z,1015.73
2017-10-13T07:32:58.034Z,1015.73
2017-10-13T07:33:38.446Z,1015.71
2017-10-13T07:34:18.861Z,1015.73
2017-10-13T07:34:59.359Z,1015.74
2017-10-13T07:35:39.932Z,1015.66
2017-10-13T07:36:20.471Z,1015.65
2017-10-13T07:37:00.861Z,1015.65
2017-10-13T07:37:41.181Z,1015.68
2017-10-13T07:38:21.622Z,1015.69
2017-10-13T07:39:02.309Z,1015.72
2017-10-13T07:39:43.395Z,1015.72
2017-10-13T07:40:48.522Z,1015.38
2017-10-13T07:41:32.525Z,1015.73
2017-10-13T07:42:13.286Z,1015.76
2017-10-13T07:42:53.576Z,1015.77
2017-10-13T07:43:34.599Z,1015.75
2017-10-13T07:44:14.908Z,1015.8
2017-10-13T07:47:01.679Z,1015.86
2017-10-13T07:47:45.116Z,1015.85
2017-10-13T07:48:28.021Z,1015.82
2017-10-13T07:49:10.439Z,1015.87
2017-10-13T07:49:52.071Z,1015.87
2017-10-13T07:50:33.672Z,1015.89
2017-10-13T07:51:14.062Z,1015.89
2017-10-13T07:51:57.228Z,1015.91
2017-10-13T07:52:40.138Z,1015.94
2017-10-13T07:53:21.412Z,1015.88
2017-10-13T07:54:04.676Z,1015.89
2017-10-13T07:54:48.604Z,1015.87
2017-10-13T07:55:30.186Z,1015.85
2017-10-13T07:56:14.205Z,1015.9
2017-10-13T07:56:56.560Z,1015.87
2017-10-13T07:57:43.846Z,1015.88
2017-10-13T07:58:24.098Z,1015.88
2017-10-13T07:59:06.141Z,1015.95
2017-10-13T07:59:48.035Z,1015.92
2017-10-13T08:00:30.530Z,1015.94
2017-10-13T08:01:11.217Z,1015.96
2017-10-13T08:01:53.533Z,1015.96
2017-10-13T08:02:36.086Z,1016
2017-10-13T08:03:16.546Z,1015.97
2017-10-13T08:03:58.603Z,1015.96
2017-10-13T08:04:40.156Z,1016.02
2017-10-13T08:05:21.210Z,1015.99
2017-10-13T08:06:01.475Z,1015.98
2017-10-13T08:06:43.036Z,1016.01
2017-10-13T08:07:24.186Z,1016.03
2017-10-13T08:08:05.605Z,1016.03
2017-10-13T08:08:46.998Z,1016.04
2017-10-13T08:09:28.955Z,1016.08
2017-10-13T08:10:10.453Z,1016.05
2017-10-13T08:10:50.997Z,1016.05
2017-10-13T08:11:31.622Z,1016.04
2017-10-13T08:12:12.175Z,1016.06
2017-10-13T08:12:52.799Z,1016.06
2017-10-13T08:13:33.301Z,1016.1
2017-10-13T08:15:55.270Z,1016.09
2017-10-13T08:16:50.345Z,1016.09